Time;durP1;ratioP1;P1;durP2;ratioP2;P2;SDS_P1;SDS_P2;PMS_P1;PMS_P2;Temp;Humidity;BMP_temperature;BMP_pressure;BME280_temperature;BME280_humidity;BME280_pressure;Samples;Min_cycle;Max_cycle;Signal;HPM_P1;HPM_P2
2023/09/25 00:02:23;;;;;;;;;;;;;;;12.87;85.87;101790.36;107558;277;105395;-57
2023/09/25 00:05:00;;;;;;;;;;;;;;;12.83;85.95;101791.05;107570;277;114405;-58
2023/09/25 00:07:35;;;;;;;;;;;;;;;12.80;85.95;101794.06;107451;277;98403;-58
2023/09/25 00:10:07;;;;;;;;;;;;;;;12.73;86.00;101799.40;107556;277;96965;-55
2023/09/25 00:12:38;;;;;;;;;;;;;;;12.68;86.05;101803.94;107524;277;120282;-55
2023/09/25 00:15:12;;;;;;;;;;;;;;;12.68;86.03;101808.61;107472;277;106569;-58
2023/09/25 00:17:43;;;;;;;;;;;;;;;12.67;86.04;101817.24;107480;277;114326;-58
2023/09/25 00:20:20;;;;;;;;;;;;;;;12.65;86.21;101818.21;107551;277;97357;-57
2023/09/25 00:22:55;;;;;;;;;;;;;;;12.66;86.09;101816.42;107537;277;96333;-57
2023/09/25 00:25:34;;;;;;;;;;;;;;;12.66;86.40;101814.84;107537;277;120930;-58
2023/09/25 00:28:05;;;;;;;;;;;;;;;12.66;86.44;101815.38;107531;277;104871;-59
2023/09/25 00:30:41;;;;;;;;;;;;;;;12.64;86.47;101818.05;107543;277;114334;-56
2023/09/25 00:33:15;;;;;;;;;;;;;;;12.62;86.60;101816.93;107489;277;96753;-56
2023/09/25 00:35:48;;;;;;;;;;;;;;;12.61;86.76;101811.79;107544;277;98138;-58
2023/09/25 00:38:21;;;;;;;;;;;;;;;12.64;86.80;101809.48;107588;277;118694;-58
2023/09/25 00:40:59;;;;;;;;;;;;;;;12.67;86.87;101807.63;107572;277;105659;-55
2023/09/25 00:43:40;;;;;;;;;;;;;;;12.73;86.89;101813.01;107538;277;114724;-55
2023/09/25 00:46:14;;;;;;;;;;;;;;;12.72;87.03;101815.00;107526;277;97052;-57
2023/09/25 00:48:48;;;;;;;;;;;;;;;12.76;86.97;101816.94;107529;277;97419;-57
2023/09/25 00:51:23;;;;;;;;;;;;;;;12.76;86.92;101813.55;107628;277;120160;-60
2023/09/25 00:54:00;;;;;;;;;;;;;;;12.74;86.98;101812.60;107585;277;103215;-59
2023/09/25 00:56:35;;;;;;;;;;;;;;;12.69;87.30;101808.13;107550;277;114381;-55
2023/09/25 00:59:06;;;;;;;;;;;;;;;12.72;87.17;101811.81;107488;277;99013;-55
2023/09/25 01:01:43;;;;;;;;;;;;;;;12.73;87.20;101810.46;107492;277;97728;-57
2023/09/25 01:04:17;;;;;;;;;;;;;;;12.71;87.23;101807.92;107479;277;120787;-54
2023/09/25 01:06:54;;;;;;;;;;;;;;;12.70;87.18;101805.89;107457;277;105194;-54
2023/09/25 01:09:26;;;;;;;;;;;;;;;12.66;87.36;101808.13;107470;277;114643;-56
2023/09/25 01:12:01;;;;;;;;;;;;;;;12.66;87.43;101808.84;107442;277;97081;-54
2023/09/25 01:14:37;;;;;;;;;;;;;;;12.64;87.60;101809.30;107498;277;96691;-58
2023/09/25 01:17:11;;;;;;;;;;;;;;;12.63;87.31;101804.70;107468;277;120806;-57
2023/09/25 01:19:50;;;;;;;;;;;;;;;12.58;87.67;101805.75;107482;277;104712;-59
2023/09/25 01:22:27;;;;;;;;;;;;;;;12.59;87.68;101810.92;107514;277;114201;-59
2023/09/25 01:25:06;;;;;;;;;;;;;;;12.59;87.67;101813.14;107618;277;96009;-59
2023/09/25 01:27:43;;;;;;;;;;;;;;;12.57;87.76;101814.09;107644;277;97421;-60
2023/09/25 01:30:25;;;;;;;;;;;;;;;12.57;87.91;101816.70;107529;277;120773;-56
2023/09/25 01:33:00;;;;;;;;;;;;;;;12.59;87.85;101817.91;107497;277;104520;-58
2023/09/25 01:35:42;;;;;;;;;;;;;;;12.58;87.78;101816.66;107656;277;113371;-54
2023/09/25 01:38:14;;;;;;;;;;;;;;;12.59;87.90;101811.81;107575;277;96239;-53
2023/09/25 01:40:49;;;;;;;;;;;;;;;12.60;87.97;101814.46;107590;277;97181;-57
2023/09/25 01:43:25;;;;;;;;;;;;;;;12.60;88.11;101814.73;107590;277;121959;-58
2023/09/25 01:45:57;;;;;;;;;;;;;;;12.59;88.29;101815.91;107641;277;104822;-59
2023/09/25 01:48:34;;;;;;;;;;;;;;;12.63;88.20;101809.75;107633;277;114143;-59
2023/09/25 01:51:11;;;;;;;;;;;;;;;12.67;88.25;101811.83;107576;277;95210;-60
2023/09/25 01:53:50;;;;;;;;;;;;;;;12.66;88.22;101813.17;107595;277;97618;-59
2023/09/25 01:56:28;;;;;;;;;;;;;;;12.66;88.38;101816.39;107591;277;121139;-59
2023/09/25 01:59:08;;;;;;;;;;;;;;;12.69;88.28;101816.50;107700;277;106094;-60
2023/09/25 02:01:40;;;;;;;;;;;;;;;12.68;88.41;101814.09;107485;277;113279;-59
2023/09/25 02:04:20;;;;;;;;;;;;;;;12.64;88.47;101816.63;107629;277;96797;-58
2023/09/25 02:06:56;;;;;;;;;;;;;;;12.64;88.64;101810.23;107675;277;95814;-59
2023/09/25 02:09:29;;;;;;;;;;;;;;;12.62;88.35;101812.93;107697;277;119693;-60
2023/09/25 02:12:05;;;;;;;;;;;;;;;12.60;88.47;101813.16;107709;277;103126;-59
2023/09/25 02:14:40;;;;;;;;;;;;;;;12.59;88.51;101814.02;107801;277;113069;-57
2023/09/25 02:17:17;;;;;;;;;;;;;;;12.53;88.79;101810.89;107544;277;96666;-57
2023/09/25 02:20:08;;;;;;;;;;;;;;;12.52;88.73;101806.11;107630;277;96558;-57
2023/09/25 02:22:42;;;;;;;;;;;;;;;12.49;88.47;101814.15;107539;277;119909;-58
2023/09/25 02:25:17;;;;;;;;;;;;;;;12.45;88.71;101818.70;107616;277;105295;-57
2023/09/25 02:27:50;;;;;;;;;;;;;;;12.42;88.78;101820.63;107596;277;113702;-55
2023/09/25 02:30:27;;;;;;;;;;;;;;;12.39;88.81;101822.63;107593;277;97011;-57
2023/09/25 02:33:01;;;;;;;;;;;;;;;12.30;88.99;101824.91;107633;277;97774;-57
2023/09/25 02:35:35;;;;;;;;;;;;;;;12.28;89.01;101819.14;107619;277;118046;-55
2023/09/25 02:38:08;;;;;;;;;;;;;;;12.26;89.12;101819.75;107595;277;105547;-55
2023/09/25 02:40:45;;;;;;;;;;;;;;;12.23;88.99;101817.73;107619;277;115009;-59
2023/09/25 02:43:16;;;;;;;;;;;;;;;12.20;89.12;101814.31;107712;277;96285;-59
2023/09/25 02:45:52;;;;;;;;;;;;;;;12.14;89.30;101814.27;107672;277;97362;-56
2023/09/25 02:48:33;;;;;;;;;;;;;;;12.11;89.24;101811.12;107559;277;120055;-56
2023/09/25 02:51:10;;;;;;;;;;;;;;;12.06;89.44;101812.18;107619;277;106101;-54
2023/09/25 02:53:46;;;;;;;;;;;;;;;12.03;89.63;101814.08;107629;277;111991;-54
2023/09/25 02:56:21;;;;;;;;;;;;;;;12.00;89.60;101812.80;107567;277;97078;-57
2023/09/25 02:58:58;;;;;;;;;;;;;;;12.00;89.73;101812.50;107552;277;97643;-57
2023/09/25 03:01:34;;;;;;;;;;;;;;;11.99;89.70;101814.22;107613;277;118331;-57
2023/09/25 03:04:11;;;;;;;;;;;;;;;12.01;89.71;101808.23;107541;277;105286;-57
2023/09/25 03:06:47;;;;;;;;;;;;;;;12.01;89.99;101805.42;107531;277;114717;-54
2023/09/25 03:09:26;;;;;;;;;;;;;;;12.01;90.07;101801.73;107572;277;95349;-57
2023/09/25 03:12:02;;;;;;;;;;;;;;;12.01;90.09;101798.83;107590;277;96671;-56
2023/09/25 03:14:42;;;;;;;;;;;;;;;12.00;90.19;101802.55;107579;277;120251;-58
2023/09/25 03:17:20;;;;;;;;;;;;;;;12.00;90.16;101802.23;107531;277;105703;-58
2023/09/25 03:19:52;;;;;;;;;;;;;;;12.01;90.40;101802.64;107537;277;116268;-54
2023/09/25 03:22:25;;;;;;;;;;;;;;;12.04;90.72;101804.98;107587;277;96546;-54
2023/09/25 03:25:03;;;;;;;;;;;;;;;12.05;90.58;101810.99;107560;277;98110;-57
2023/09/25 03:27:38;;;;;;;;;;;;;;;12.05;90.54;101811.36;107500;277;119924;-57
2023/09/25 03:30:11;;;;;;;;;;;;;;;12.02;90.69;101808.81;107597;277;105705;-57
2023/09/25 03:32:51;;;;;;;;;;;;;;;12.01;90.83;101808.48;107582;277;114319;-57
2023/09/25 03:35:32;;;;;;;;;;;;;;;12.02;90.66;101814.27;107529;277;97792;-58
2023/09/25 03:38:04;;;;;;;;;;;;;;;12.02;90.72;101818.05;107566;277;95895;-58
2023/09/25 03:40:41;;;;;;;;;;;;;;;12.01;90.66;101819.20;107599;277;119290;-54
2023/09/25 03:43:18;;;;;;;;;;;;;;;11.99;90.79;101821.97;107532;277;105182;-55
2023/09/25 03:45:52;;;;;;;;;;;;;;;11.99;90.89;101825.59;107567;277;112964;-56
2023/09/25 03:48:26;;;;;;;;;;;;;;;11.97;90.93;101828.56;107555;277;96805;-56
2023/09/25 03:51:03;;;;;;;;;;;;;;;11.94;90.93;101830.48;107619;277;97509;-57
2023/09/25 03:53:36;;;;;;;;;;;;;;;11.95;90.86;101830.73;107471;270;120375;-59
2023/09/25 03:56:19;;;;;;;;;;;;;;;11.93;91.05;101831.80;107520;277;105276;-60
2023/09/25 03:58:55;;;;;;;;;;;;;;;11.91;90.96;101836.53;106993;277;692859;-59
2023/09/25 04:01:32;;;;;;;;;;;;;;;11.90;90.94;101839.48;107663;277;96558;-56
2023/09/25 04:04:09;;;;;;;;;;;;;;;11.88;91.13;101840.91;107638;277;96533;-56
2023/09/25 04:06:39;;;;;;;;;;;;;;;11.89;91.17;101839.13;107745;277;119581;-59
2023/09/25 04:09:17;;;;;;;;;;;;;;;11.91;91.10;101839.65;107725;277;105930;-57
2023/09/25 04:11:52;;;;;;;;;;;;;;;11.91;91.25;101844.75;107637;277;115543;-56
2023/09/25 04:14:23;;;;;;;;;;;;;;;11.89;91.19;101851.08;107650;277;96314;-56
2023/09/25 04:16:55;;;;;;;;;;;;;;;11.86;91.37;101859.86;107704;276;96667;-56
2023/09/25 04:19:30;;;;;;;;;;;;;;;11.88;91.21;101862.38;107681;276;120843;-56
2023/09/25 04:22:06;;;;;;;;;;;;;;;11.87;91.38;101859.98;107667;276;105550;-58
2023/09/25 04:24:38;;;;;;;;;;;;;;;11.87;91.41;101857.02;107694;277;113813;-56
2023/09/25 04:27:15;;;;;;;;;;;;;;;11.86;91.56;101862.23;107695;277;97288;-55
2023/09/25 04:29:46;;;;;;;;;;;;;;;11.85;91.58;101860.84;107758;276;96929;-58
2023/09/25 04:32:20;;;;;;;;;;;;;;;11.88;91.55;101858.35;107694;276;121165;-59
2023/09/25 04:35:01;;;;;;;;;;;;;;;11.86;91.58;101857.09;107728;276;104843;-56
2023/09/25 04:37:37;;;;;;;;;;;;;;;11.87;91.51;101856.73;107666;276;114313;-56
2023/09/25 04:40:14;;;;;;;;;;;;;;;11.88;91.44;101859.70;107628;276;96614;-55
2023/09/25 04:42:46;;;;;;;;;;;;;;;11.90;91.44;101859.81;107665;276;98095;-55
2023/09/25 04:45:18;;;;;;;;;;;;;;;11.91;91.51;101856.23;107672;277;119917;-55
2023/09/25 04:47:55;;;;;;;;;;;;;;;11.94;91.52;101858.84;107625;276;106299;-55
2023/09/25 04:50:29;;;;;;;;;;;;;;;11.95;91.60;101867.02;107687;276;113760;-58
2023/09/25 04:53:03;;;;;;;;;;;;;;;12.03;91.93;101869.55;107763;277;96432;-57
2023/09/25 04:55:38;;;;;;;;;;;;;;;12.06;91.52;101868.14;107726;277;96376;-59
2023/09/25 04:58:17;;;;;;;;;;;;;;;12.03;91.54;101867.05;107710;277;120875;-59
2023/09/25 05:00:53;;;;;;;;;;;;;;;11.99;91.96;101866.77;107702;277;105245;-55
2023/09/25 05:03:33;;;;;;;;;;;;;;;12.02;91.65;101872.21;107474;277;113660;-56
2023/09/25 05:06:03;;;;;;;;;;;;;;;12.07;92.03;101873.84;107695;277;96537;-57
2023/09/25 05:08:39;;;;;;;;;;;;;;;12.12;91.73;101879.76;107706;276;96640;-57
2023/09/25 05:11:17;;;;;;;;;;;;;;;12.16;91.78;101874.27;107655;276;119881;-56
2023/09/25 05:13:50;;;;;;;;;;;;;;;12.22;91.70;101876.20;107689;276;105583;-59
2023/09/25 05:16:21;;;;;;;;;;;;;;;12.25;91.69;101872.99;107655;276;113883;-57
2023/09/25 05:18:57;;;;;;;;;;;;;;;12.28;91.72;101868.08;107476;276;96314;-57
2023/09/25 05:21:32;;;;;;;;;;;;;;;12.37;91.68;101863.14;107770;277;97417;-59
2023/09/25 05:24:07;;;;;;;;;;;;;;;12.47;91.71;101859.95;107724;276;120343;-59
2023/09/25 05:26:39;;;;;;;;;;;;;;;12.57;91.54;101853.80;107651;276;105601;-55
2023/09/25 05:29:13;;;;;;;;;;;;;;;12.64;91.50;101854.65;107690;276;114215;-55
2023/09/25 05:31:48;;;;;;;;;;;;;;;12.70;91.59;101861.51;107608;277;96223;-55
2023/09/25 05:34:25;;;;;;;;;;;;;;;12.78;91.58;101856.75;107695;276;95665;-60
2023/09/25 05:37:00;;;;;;;;;;;;;;;12.94;91.53;101861.09;107703;276;120981;-58
2023/09/25 05:39:37;;;;;;;;;;;;;;;13.46;91.75;101866.20;107662;276;106730;-54
2023/09/25 05:42:09;;;;;;;;;;;;;;;15.09;91.57;101857.03;107647;276;113613;-54
2023/09/25 05:44:50;;;;;;;;;;;;;;;16.69;89.75;101853.98;107635;277;95603;-57
2023/09/25 05:47:30;;;;;;;;;;;;;;;17.81;87.17;101855.79;107662;276;97408;-56
2023/09/25 05:50:06;;;;;;;;;;;;;;;18.83;84.50;101843.86;107711;277;118695;-57
2023/09/25 05:52:37;;;;;;;;;;;;;;;18.85;83.19;101840.64;107676;276;105178;-57
2023/09/25 05:55:14;;;;;;;;;;;;;;;18.58;82.78;101839.80;107712;277;113820;-57
2023/09/25 05:57:49;;;;;;;;;;;;;;;17.99;81.64;101846.54;107682;277;93541;-57
2023/09/25 06:00:25;;;;;;;;;;;;;;;17.45;81.13;101854.87;107840;277;97339;-60
2023/09/25 06:03:06;;;;;;;;;;;;;;;17.50;81.28;101858.02;107825;277;120386;-60
2023/09/25 06:05:39;;;;;;;;;;;;;;;17.20;80.41;101853.78;107778;277;105656;-58
2023/09/25 06:08:18;;;;;;;;;;;;;;;16.71;80.55;101848.58;107691;277;113859;-58
2023/09/25 06:10:59;;;;;;;;;;;;;;;16.39;80.79;101854.78;107694;276;94891;-57
2023/09/25 06:13:30;;;;;;;;;;;;;;;16.12;80.70;101855.69;107648;277;97246;-56
2023/09/25 06:16:12;;;;;;;;;;;;;;;15.87;80.76;101855.20;107690;277;120108;-57
2023/09/25 06:18:47;;;;;;;;;;;;;;;15.58;81.04;101855.52;107635;276;106126;-57
2023/09/25 06:21:20;;;;;;;;;;;;;;;15.39;81.40;101853.98;107709;276;114965;-59
2023/09/25 06:23:54;;;;;;;;;;;;;;;15.41;81.68;101857.05;107688;276;95017;-56
2023/09/25 06:26:27;;;;;;;;;;;;;;;15.38;81.58;101856.84;107551;277;97268;-57
2023/09/25 06:29:01;;;;;;;;;;;;;;;15.31;81.69;101856.65;107648;277;121178;-54
2023/09/25 06:31:40;;;;;;;;;;;;;;;15.24;81.96;101858.71;107681;277;104645;-56
2023/09/25 06:34:16;;;;;;;;;;;;;;;15.23;81.90;101854.51;107695;277;114350;-57
2023/09/25 06:36:52;;;;;;;;;;;;;;;15.31;82.01;101852.80;107661;277;96803;-56
2023/09/25 06:39:33;;;;;;;;;;;;;;;15.38;82.17;101852.91;107690;277;97546;-56
2023/09/25 06:42:06;;;;;;;;;;;;;;;15.57;82.06;101855.49;107697;277;120289;-58
2023/09/25 06:44:42;;;;;;;;;;;;;;;15.66;81.97;101861.60;107598;277;102876;-56
2023/09/25 06:47:13;;;;;;;;;;;;;;;15.77;81.88;101861.52;107512;277;114633;-56
2023/09/25 06:49:49;;;;;;;;;;;;;;;15.84;81.89;101857.67;107725;276;93906;-60
2023/09/25 06:52:25;;;;;;;;;;;;;;;15.98;81.92;101865.83;107852;276;97825;-58
2023/09/25 06:54:56;;;;;;;;;;;;;;;16.15;81.66;101861.48;107872;276;119030;-54
2023/09/25 06:57:31;;;;;;;;;;;;;;;16.25;81.16;101862.27;107670;277;104987;-54
2023/09/25 07:00:10;;;;;;;;;;;;;;;16.33;80.98;101863.42;107622;277;113996;-53
2023/09/25 07:02:43;;;;;;;;;;;;;;;16.44;80.92;101863.27;107689;276;96868;-55
2023/09/25 07:05:16;;;;;;;;;;;;;;;16.67;80.53;101857.17;107555;277;97294;-58
2023/09/25 07:07:48;;;;;;;;;;;;;;;16.93;80.07;101861.23;107645;276;121800;-57
2023/09/25 07:10:23;;;;;;;;;;;;;;;16.99;79.67;101869.56;107747;277;105517;-59
2023/09/25 07:13:03;;;;;;;;;;;;;;;17.02;79.48;101871.09;107746;277;114458;-58
2023/09/25 07:15:44;;;;;;;;;;;;;;;17.27;79.40;101876.57;107681;277;93784;-55
2023/09/25 07:18:16;;;;;;;;;;;;;;;17.43;79.12;101878.91;107707;277;97427;-57
2023/09/25 07:20:54;;;;;;;;;;;;;;;17.48;78.81;101882.33;107716;276;120783;-55
2023/09/25 07:23:25;;;;;;;;;;;;;;;17.58;78.64;101881.95;107730;276;106315;-55
2023/09/25 07:26:02;;;;;;;;;;;;;;;17.62;78.29;101887.36;107631;277;114122;-58
2023/09/25 07:28:38;;;;;;;;;;;;;;;17.74;78.38;101891.69;107717;277;95473;-57
2023/09/25 07:31:22;;;;;;;;;;;;;;;17.99;78.38;101889.08;107740;277;97538;-53
2023/09/25 07:33:58;;;;;;;;;;;;;;;17.96;77.75;101892.02;107694;277;120329;-56
2023/09/25 07:36:37;;;;;;;;;;;;;;;17.81;76.96;101896.11;107673;277;108276;-57
2023/09/25 07:39:13;;;;;;;;;;;;;;;17.69;77.15;101895.64;107718;276;114960;-57
2023/09/25 07:41:46;;;;;;;;;;;;;;;17.79;77.11;101899.00;107678;276;93993;-57
2023/09/25 07:44:16;;;;;;;;;;;;;;;18.55;77.16;101894.44;107684;276;96524;-54
2023/09/25 07:46:51;;;;;;;;;;;;;;;19.49;76.33;101886.36;107658;276;119677;-55
2023/09/25 07:49:29;;;;;;;;;;;;;;;19.95;74.96;101886.70;107682;276;104433;-53
2023/09/25 07:52:15;;;;;;;;;;;;;;;21.03;74.63;101884.52;107681;277;114685;-54
2023/09/25 07:54:51;;;;;;;;;;;;;;;22.25;72.13;101885.00;107718;276;92694;-57
2023/09/25 07:57:22;;;;;;;;;;;;;;;23.49;70.64;101875.34;107671;277;97828;-57
2023/09/25 07:59:55;;;;;;;;;;;;;;;24.83;67.42;101872.66;107701;277;119443;-59
2023/09/25 08:02:26;;;;;;;;;;;;;;;25.76;65.85;101872.17;107657;276;105550;-58
2023/09/25 08:05:03;;;;;;;;;;;;;;;26.87;64.22;101872.64;107689;277;115814;-60
2023/09/25 08:07:39;;;;;;;;;;;;;;;27.67;61.56;101870.01;107787;276;94064;-60
2023/09/25 08:10:12;;;;;;;;;;;;;;;28.29;60.88;101867.44;107767;276;97691;-58
2023/09/25 08:12:45;;;;;;;;;;;;;;;28.78;59.06;101867.38;107672;276;120149;-59
2023/09/25 08:15:23;;;;;;;;;;;;;;;28.74;56.68;101866.63;107704;276;104442;-58
2023/09/25 08:17:57;;;;;;;;;;;;;;;28.37;56.32;101861.42;107711;277;114403;-58
2023/09/25 08:20:34;;;;;;;;;;;;;;;27.99;55.44;101862.33;107722;276;94087;-54
2023/09/25 08:23:11;;;;;;;;;;;;;;;27.36;55.51;101858.86;107716;276;97627;-56
2023/09/25 08:25:43;;;;;;;;;;;;;;;26.99;54.99;101861.36;107700;277;121615;-57
2023/09/25 08:28:18;;;;;;;;;;;;;;;26.46;55.17;101865.73;107625;277;103638;-56
2023/09/25 08:30:48;;;;;;;;;;;;;;;26.13;55.14;101861.66;107670;276;113228;-56
2023/09/25 08:33:21;;;;;;;;;;;;;;;25.61;55.22;101856.61;107657;276;92944;-56
2023/09/25 08:35:55;;;;;;;;;;;;;;;25.46;54.68;101858.26;107727;277;96571;-58
2023/09/25 08:38:30;;;;;;;;;;;;;;;25.34;54.88;101856.48;107476;277;120118;-58
2023/09/25 08:41:05;;;;;;;;;;;;;;;25.28;54.59;101848.87;107661;276;104770;-56
2023/09/25 08:43:43;;;;;;;;;;;;;;;25.59;54.74;101845.92;107648;276;113274;-56
2023/09/25 08:46:21;;;;;;;;;;;;;;;25.72;54.70;101841.23;107654;276;94961;-55
2023/09/25 08:49:01;;;;;;;;;;;;;;;25.55;54.51;101844.88;107644;276;96873;-55
2023/09/25 08:51:37;;;;;;;;;;;;;;;25.20;54.59;101845.75;107755;277;120221;-55
2023/09/25 08:54:14;;;;;;;;;;;;;;;24.90;54.52;101846.20;107733;276;105348;-58
2023/09/25 08:56:58;;;;;;;;;;;;;;;24.38;54.21;101849.52;107697;276;115043;-61
2023/09/25 08:59:37;;;;;;;;;;;;;;;24.10;54.55;101842.58;107733;276;93814;-55
2023/09/25 09:02:12;;;;;;;;;;;;;;;23.93;55.14;101839.65;107726;276;96696;-55
2023/09/25 09:04:46;;;;;;;;;;;;;;;23.68;55.05;101836.55;107694;276;120601;-58
2023/09/25 09:07:18;;;;;;;;;;;;;;;23.35;55.84;101827.38;107680;276;105173;-57
2023/09/25 09:09:55;;;;;;;;;;;;;;;23.16;56.56;101827.91;107707;276;113386;-55
2023/09/25 09:12:33;;;;;;;;;;;;;;;23.23;56.54;101828.04;107626;276;95046;-56
2023/09/25 09:15:26;;;;;;;;;;;;;;;23.68;56.97;101827.09;107710;276;97928;-57
2023/09/25 09:18:16;;;;;;;;;;;;;;;24.32;56.77;101821.77;107695;276;121646;-56
2023/09/25 09:20:55;;;;;;;;;;;;;;;24.97;56.65;101817.40;107704;276;103842;-55
2023/09/25 09:23:40;;;;;;;;;;;;;;;25.59;55.06;101818.28;107707;276;115247;-55
2023/09/25 09:26:16;;;;;;;;;;;;;;;26.04;53.48;101819.53;107737;276;94976;-56
2023/09/25 09:28:53;;;;;;;;;;;;;;;26.39;52.37;101813.00;107559;277;97727;-58
2023/09/25 09:31:27;;;;;;;;;;;;;;;26.53;51.06;101812.50;107700;276;120671;-57
2023/09/25 09:34:04;;;;;;;;;;;;;;;26.47;50.73;101812.83;107730;277;105835;-56
2023/09/25 09:36:51;;;;;;;;;;;;;;;26.42;50.74;101816.09;107674;276;114081;-57
2023/09/25 09:39:25;;;;;;;;;;;;;;;26.01;49.92;101815.88;107740;276;92542;-60
2023/09/25 09:41:59;;;;;;;;;;;;;;;25.75;50.26;101815.35;107713;277;97496;-57
2023/09/25 09:44:35;;;;;;;;;;;;;;;25.12;49.15;101813.23;107727;277;120117;-59
2023/09/25 09:47:08;;;;;;;;;;;;;;;24.65;50.16;101813.27;107683;277;105871;-59
2023/09/25 09:49:47;;;;;;;;;;;;;;;24.18;50.33;101814.30;107639;277;113473;-56
2023/09/25 09:52:21;;;;;;;;;;;;;;;23.84;50.77;101815.02;107656;277;94466;-56
2023/09/25 09:55:01;;;;;;;;;;;;;;;23.45;51.04;101810.66;107722;276;97879;-58
2023/09/25 09:57:40;;;;;;;;;;;;;;;23.31;51.73;101805.75;107738;277;120392;-57
2023/09/25 10:00:16;;;;;;;;;;;;;;;23.20;52.01;101800.55;107669;277;105669;-56
2023/09/25 10:02:47;;;;;;;;;;;;;;;23.16;52.31;101804.86;107708;277;114777;-56
2023/09/25 10:05:24;;;;;;;;;;;;;;;23.11;52.38;101805.30;107679;277;94777;-59
2023/09/25 10:08:12;;;;;;;;;;;;;;;23.15;52.78;101800.87;107669;277;95765;-62
2023/09/25 10:10:44;;;;;;;;;;;;;;;22.83;52.52;101804.81;107677;277;120977;-58
2023/09/25 10:13:22;;;;;;;;;;;;;;;22.66;53.06;101800.28;107703;277;105034;-57
2023/09/25 10:16:00;;;;;;;;;;;;;;;22.64;53.46;101799.38;107685;277;115549;-55
2023/09/25 10:18:37;;;;;;;;;;;;;;;22.53;53.39;101794.65;107677;277;94738;-56
2023/09/25 10:21:14;;;;;;;;;;;;;;;22.41;53.61;101795.15;107725;276;98319;-59
2023/09/25 10:23:53;;;;;;;;;;;;;;;22.42;53.74;101797.20;107639;277;120875;-58
2023/09/25 10:26:33;;;;;;;;;;;;;;;22.50;53.67;101794.69;107702;277;104504;-55
2023/09/25 10:29:18;;;;;;;;;;;;;;;22.51;53.87;101788.11;107698;276;115062;-55
2023/09/25 10:31:53;;;;;;;;;;;;;;;22.62;53.70;101789.98;107701;277;93748;-58
2023/09/25 10:34:29;;;;;;;;;;;;;;;22.74;53.67;101788.90;107771;276;98070;-56
2023/09/25 10:37:05;;;;;;;;;;;;;;;22.64;53.83;101791.12;107468;277;122727;-54
2023/09/25 10:39:40;;;;;;;;;;;;;;;22.69;53.99;101787.36;107728;276;105095;-57
2023/09/25 10:42:15;;;;;;;;;;;;;;;22.72;53.57;101787.70;107511;277;114979;-60
2023/09/25 10:44:50;;;;;;;;;;;;;;;22.66;53.23;101787.54;107696;277;94057;-59
2023/09/25 10:47:26;;;;;;;;;;;;;;;22.68;53.50;101780.39;107701;277;98275;-59
2023/09/25 10:50:02;;;;;;;;;;;;;;;22.78;53.23;101775.14;107648;277;119879;-57
2023/09/25 10:52:36;;;;;;;;;;;;;;;22.82;53.38;101774.09;107661;277;105404;-56
2023/09/25 10:55:10;;;;;;;;;;;;;;;22.76;53.21;101772.11;107660;277;112825;-57
2023/09/25 10:57:46;;;;;;;;;;;;;;;22.78;53.27;101767.91;107703;277;95007;-56
2023/09/25 11:00:21;;;;;;;;;;;;;;;22.66;52.25;101777.83;107558;277;97694;-58
2023/09/25 11:02:54;;;;;;;;;;;;;;;22.63;52.49;101773.23;107708;277;119409;-59
2023/09/25 11:05:27;;;;;;;;;;;;;;;22.59;52.29;101772.00;107631;277;105642;-57
2023/09/25 11:08:00;;;;;;;;;;;;;;;22.58;52.38;101769.32;107697;276;115213;-57
2023/09/25 11:10:35;;;;;;;;;;;;;;;22.47;52.33;101760.12;107697;276;94966;-57
2023/09/25 11:13:05;;;;;;;;;;;;;;;22.42;52.61;101756.55;107659;276;97159;-57
2023/09/25 11:15:46;;;;;;;;;;;;;;;22.40;52.70;101756.08;107666;277;118452;-57
2023/09/25 11:18:21;;;;;;;;;;;;;;;22.33;52.34;101757.40;107650;277;105366;-57
2023/09/25 11:20:59;;;;;;;;;;;;;;;22.26;52.73;101756.19;107692;276;113955;-55
2023/09/25 11:23:33;;;;;;;;;;;;;;;22.18;52.79;101755.91;107676;276;94516;-56
2023/09/25 11:26:05;;;;;;;;;;;;;;;22.13;52.94;101755.55;107686;277;96895;-57
2023/09/25 11:28:38;;;;;;;;;;;;;;;22.10;53.17;101753.30;107737;277;118836;-57
2023/09/25 11:31:15;;;;;;;;;;;;;;;22.13;52.85;101753.33;107659;277;105578;-56
2023/09/25 11:33:47;;;;;;;;;;;;;;;22.10;52.79;101751.75;107697;277;114184;-55
2023/09/25 11:36:21;;;;;;;;;;;;;;;22.04;52.99;101756.33;107638;277;94240;-57
2023/09/25 11:38:51;;;;;;;;;;;;;;;22.05;52.83;101754.16;107673;277;97872;-57
2023/09/25 11:41:28;;;;;;;;;;;;;;;21.93;53.08;101747.36;107697;277;120118;-58
2023/09/25 11:44:04;;;;;;;;;;;;;;;21.97;53.47;101749.52;107686;277;105584;-59
2023/09/25 11:46:35;;;;;;;;;;;;;;;22.00;53.07;101750.87;107649;277;115011;-59
2023/09/25 11:49:12;;;;;;;;;;;;;;;22.03;53.25;101746.61;107670;276;93017;-60
2023/09/25 11:51:48;;;;;;;;;;;;;;;22.00;52.77;101744.46;107683;277;95428;-58
2023/09/25 11:54:26;;;;;;;;;;;;;;;21.98;53.00;101737.76;107670;277;120793;-57
2023/09/25 11:57:01;;;;;;;;;;;;;;;21.99;53.10;101735.71;107135;277;675306;-63
2023/09/25 11:59:33;;;;;;;;;;;;;;;21.96;53.33;101737.75;107563;277;114786;-57
2023/09/25 12:02:12;;;;;;;;;;;;;;;21.88;53.37;101732.39;107690;276;93985;-57
2023/09/25 12:04:46;;;;;;;;;;;;;;;21.85;53.50;101731.56;107720;276;97668;-54
2023/09/25 12:07:25;;;;;;;;;;;;;;;21.86;53.56;101731.01;107681;277;121957;-55
2023/09/25 12:10:05;;;;;;;;;;;;;;;21.88;53.23;101724.23;107663;276;105708;-55
2023/09/25 12:12:41;;;;;;;;;;;;;;;21.90;53.11;101729.92;107649;276;113990;-55
2023/09/25 12:15:15;;;;;;;;;;;;;;;21.89;52.98;101726.88;107653;276;93728;-55
2023/09/25 12:17:45;;;;;;;;;;;;;;;21.88;53.07;101728.30;107697;276;96821;-56
2023/09/25 12:20:19;;;;;;;;;;;;;;;21.89;53.45;101724.79;107690;276;121181;-57
2023/09/25 12:22:54;;;;;;;;;;;;;;;21.94;53.46;101723.30;107640;277;104846;-57
2023/09/25 12:25:28;;;;;;;;;;;;;;;21.90;53.39;101724.66;107668;276;114657;-57
2023/09/25 12:28:04;;;;;;;;;;;;;;;21.94;53.70;101718.40;107641;276;95433;-57
2023/09/25 12:30:37;;;;;;;;;;;;;;;22.03;53.69;101718.37;107715;276;97920;-56
2023/09/25 12:33:18;;;;;;;;;;;;;;;22.09;53.79;101710.77;107667;276;120099;-58
2023/09/25 12:35:57;;;;;;;;;;;;;;;22.17;53.90;101710.58;107640;276;104524;-57
2023/09/25 12:38:34;;;;;;;;;;;;;;;22.26;53.64;101709.81;107483;277;114675;-55
2023/09/25 12:41:04;;;;;;;;;;;;;;;22.30;53.64;101707.83;107818;276;94994;-56
2023/09/25 12:43:42;;;;;;;;;;;;;;;22.35;53.51;101701.84;107679;276;98252;-55
2023/09/25 12:46:16;;;;;;;;;;;;;;;22.38;53.39;101705.35;107674;276;119365;-55
2023/09/25 12:48:54;;;;;;;;;;;;;;;22.45;53.66;101704.48;107692;276;105569;-55
2023/09/25 12:51:31;;;;;;;;;;;;;;;22.46;53.23;101702.90;107676;276;114394;-60
2023/09/25 12:54:04;;;;;;;;;;;;;;;22.46;53.22;101702.85;107694;276;93530;-60
2023/09/25 12:56:41;;;;;;;;;;;;;;;22.41;53.01;101702.72;107748;276;96679;-59
2023/09/25 12:59:16;;;;;;;;;;;;;;;22.36;52.64;101698.34;107919;276;119911;-59
2023/09/25 13:01:48;;;;;;;;;;;;;;;22.37;53.01;101699.05;107732;276;105245;-58
2023/09/25 13:04:19;;;;;;;;;;;;;;;22.41;52.94;101698.15;107698;276;113358;-55
2023/09/25 13:06:51;;;;;;;;;;;;;;;22.48;53.40;101696.89;107613;276;95493;-59
2023/09/25 13:09:25;;;;;;;;;;;;;;;22.51;53.61;101695.61;107704;276;96347;-60
2023/09/25 13:11:55;;;;;;;;;;;;;;;22.49;53.15;101699.58;107689;276;120772;-60
2023/09/25 13:14:26;;;;;;;;;;;;;;;22.43;53.29;101695.78;107583;277;108045;-59